createdAt,value
2023-04-17T00:02:04.520Z,7.50
2023-04-17T00:04:33.146Z,7.30
2023-04-17T00:07:03.584Z,6.80
2023-04-17T00:09:32.266Z,6.30
2023-04-17T00:12:01.205Z,5.10
2023-04-17T00:14:29.860Z,6.00
2023-04-17T00:16:58.001Z,6.30
2023-04-17T00:19:26.878Z,7.00
2023-04-17T00:21:55.067Z,6.70
2023-04-17T00:24:23.424Z,5.50
2023-04-17T00:26:52.073Z,5.10
2023-04-17T00:29:21.028Z,5.30
2023-04-17T00:31:49.725Z,5.70
2023-04-17T00:34:17.965Z,5.50
2023-04-17T00:36:46.794Z,5.40
2023-04-17T00:39:15.100Z,5.10
2023-04-17T00:41:43.357Z,4.70
2023-04-17T00:44:11.736Z,5.10
2023-04-17T00:46:40.895Z,4.70
2023-04-17T00:49:09.358Z,4.40
2023-04-17T00:51:38.147Z,4.90
2023-04-17T00:54:06.267Z,4.80
2023-04-17T00:56:34.734Z,4.80
2023-04-17T00:59:03.046Z,4.40
2023-04-17T01:01:32.192Z,4.60
2023-04-17T01:04:01.943Z,4.80
2023-04-17T01:06:30.359Z,5.50
2023-04-17T01:08:58.716Z,4.70
2023-04-17T01:11:27.375Z,4.90
2023-04-17T01:13:56.826Z,5.10
2023-04-17T01:16:25.187Z,5.20
2023-04-17T01:18:53.394Z,5.00
2023-04-17T01:21:21.696Z,5.20
2023-04-17T01:23:53.119Z,5.10
2023-04-17T01:26:23.860Z,4.70
2023-04-17T01:28:52.855Z,5.50
2023-04-17T01:31:21.571Z,4.60
2023-04-17T01:33:50.421Z,5.00
2023-04-17T01:36:18.821Z,5.00
2023-04-17T01:38:47.440Z,5.50
2023-04-17T01:41:16.115Z,5.00
2023-04-17T01:43:45.083Z,5.20
2023-04-17T01:46:13.391Z,4.60
2023-04-17T01:48:42.111Z,4.40
2023-04-17T01:51:10.480Z,4.50
2023-04-17T01:53:39.067Z,3.90
2023-04-17T01:56:07.552Z,4.10
2023-04-17T01:58:36.333Z,3.50
2023-04-17T02:01:05.790Z,3.80
2023-04-17T02:03:35.139Z,4.00
2023-04-17T02:06:04.772Z,4.20
2023-04-17T02:08:33.842Z,3.80
2023-04-17T02:11:04.217Z,4.00
2023-04-17T02:13:33.216Z,3.30
2023-04-17T02:16:01.550Z,3.10
2023-04-17T02:18:31.482Z,2.80
2023-04-17T02:21:02.219Z,3.10
2023-04-17T02:23:31.206Z,3.30
2023-04-17T02:25:59.844Z,3.00
2023-04-17T02:28:28.192Z,4.00
2023-04-17T02:30:56.697Z,3.20
2023-04-17T02:33:24.878Z,3.40
2023-04-17T02:35:54.584Z,2.60
2023-04-17T02:38:30.580Z,2.80
2023-04-17T02:40:59.265Z,2.90
2023-04-17T02:43:28.754Z,3.30
2023-04-17T02:45:57.855Z,3.20
2023-04-17T02:48:27.412Z,3.30
2023-04-17T02:50:55.855Z,3.70
2023-04-17T02:53:24.191Z,3.50
2023-04-17T02:55:52.751Z,3.20
2023-04-17T02:58:22.699Z,3.20
2023-04-17T03:00:51.105Z,3.30
2023-04-17T03:03:20.565Z,3.00
2023-04-17T03:05:49.503Z,3.30
2023-04-17T03:08:17.705Z,3.40
2023-04-17T03:10:48.134Z,3.90
2023-04-17T03:13:16.411Z,4.00
2023-04-17T03:15:44.628Z,3.50
2023-04-17T03:18:13.862Z,4.10
2023-04-17T03:20:42.020Z,4.20
2023-04-17T03:23:10.282Z,4.40
2023-04-17T03:25:38.979Z,4.90
2023-04-17T03:28:07.470Z,5.50
2023-04-17T03:30:35.805Z,6.20
2023-04-17T03:33:06.760Z,6.20
2023-04-17T03:35:35.211Z,7.80
2023-04-17T03:38:07.311Z,8.60
2023-04-17T03:40:36.356Z,6.60
2023-04-17T03:43:05.095Z,6.60
2023-04-17T03:45:35.141Z,5.00
2023-04-17T03:48:04.025Z,6.10
2023-04-17T03:50:32.518Z,3.70
2023-04-17T03:53:02.433Z,4.70
2023-04-17T03:55:31.834Z,3.70
2023-04-17T03:58:01.344Z,3.30
2023-04-17T04:00:32.152Z,3.50
2023-04-17T04:03:02.650Z,3.80
2023-04-17T04:08:05.813Z,4.10
2023-04-17T04:10:53.350Z,4.00
2023-04-17T04:13:27.047Z,4.40
2023-04-17T04:15:58.391Z,4.40
2023-04-17T04:18:28.009Z,4.00
2023-04-17T04:20:56.221Z,3.60
2023-04-17T04:23:31.403Z,3.70
2023-04-17T04:26:01.864Z,3.40
2023-04-17T04:28:52.092Z,4.00
2023-04-17T04:31:30.824Z,4.30
2023-04-17T04:34:01.373Z,5.00
2023-04-17T04:36:30.357Z,4.50
2023-04-17T04:39:21.769Z,4.50
2023-04-17T04:41:50.676Z,4.10
2023-04-17T04:44:19.855Z,3.80
2023-04-17T04:46:48.676Z,4.30
2023-04-17T04:49:17.407Z,3.90
2023-04-17T04:51:46.804Z,4.20
2023-04-17T04:54:15.481Z,3.70
2023-04-17T04:56:52.280Z,4.10
2023-04-17T04:59:21.375Z,3.70
2023-04-17T05:01:56.881Z,3.40
2023-04-17T05:04:25.283Z,3.60
2023-04-17T05:06:58.545Z,3.10
2023-04-17T05:09:27.303Z,3.00
2023-04-17T05:11:57.758Z,3.90
2023-04-17T05:14:26.220Z,3.60
2023-04-17T05:16:57.831Z,3.10
2023-04-17T05:19:26.102Z,3.70
2023-04-17T05:22:04.446Z,3.90
2023-04-17T05:24:35.261Z,3.80
2023-04-17T05:27:05.815Z,3.40
2023-04-17T05:29:34.115Z,3.70
2023-04-17T05:32:02.867Z,3.60
2023-04-17T05:34:49.952Z,3.70
2023-04-17T05:37:19.925Z,3.30
2023-04-17T05:39:52.486Z,2.80
2023-04-17T05:42:22.208Z,2.70
2023-04-17T05:44:51.353Z,3.20
2023-04-17T05:47:20.174Z,3.40
2023-04-17T05:49:51.357Z,2.90
2023-04-17T05:52:19.829Z,3.00
2023-04-17T05:54:50.053Z,3.00
2023-04-17T05:57:20.838Z,2.90
2023-04-17T05:59:49.734Z,2.80
2023-04-17T06:02:18.361Z,2.10
2023-04-17T06:04:49.000Z,2.10
2023-04-17T06:07:19.669Z,2.50
2023-04-17T06:09:47.768Z,2.20
2023-04-17T06:12:19.052Z,2.70
2023-04-17T06:14:47.180Z,2.10
2023-04-17T06:17:15.986Z,2.30
2023-04-17T06:19:44.245Z,1.80
2023-04-17T06:22:12.522Z,1.60
2023-04-17T06:24:41.597Z,2.50
2023-04-17T06:27:09.868Z,2.20
2023-04-17T06:29:41.939Z,2.30
2023-04-17T06:32:20.099Z,2.10
2023-04-17T06:34:59.235Z,2.00
2023-04-17T06:37:43.393Z,2.20
2023-04-17T06:40:12.569Z,2.50
2023-04-17T06:42:41.230Z,2.40
2023-04-17T06:45:13.489Z,2.20
2023-04-17T06:47:43.059Z,2.00
2023-04-17T06:50:11.277Z,1.90
2023-04-17T06:52:41.076Z,1.90
2023-04-17T06:55:10.579Z,1.90
2023-04-17T06:57:39.391Z,2.00
2023-04-17T07:00:08.140Z,2.00
2023-04-17T07:02:40.078Z,2.10
2023-04-17T07:05:09.543Z,2.00
2023-04-17T07:07:42.036Z,1.90
2023-04-17T07:10:11.147Z,1.70
2023-04-17T07:12:40.151Z,1.70
2023-04-17T07:15:09.865Z,1.70
2023-04-17T07:17:38.271Z,1.90
2023-04-17T07:20:09.661Z,1.50
2023-04-17T07:22:38.255Z,1.70
2023-04-17T07:25:07.117Z,1.70
2023-04-17T07:27:38.543Z,2.00
2023-04-17T07:30:08.535Z,2.00
2023-04-17T07:32:38.181Z,1.70
2023-04-17T07:35:06.709Z,1.60
2023-04-17T07:37:35.003Z,1.30
2023-04-17T07:40:05.218Z,1.90
2023-04-17T07:42:33.813Z,2.30
2023-04-17T07:45:01.927Z,1.80
2023-04-17T07:47:32.451Z,1.80
2023-04-17T07:50:00.934Z,1.70
2023-04-17T07:52:30.613Z,1.70
2023-04-17T07:54:58.912Z,1.90
2023-04-17T07:57:27.259Z,1.90
2023-04-17T07:59:55.849Z,1.70
2023-04-17T08:02:24.537Z,1.40
2023-04-17T08:04:55.228Z,1.40
2023-04-17T08:07:24.014Z,2.00
2023-04-17T08:09:52.353Z,1.40
2023-04-17T08:12:20.980Z,1.60
2023-04-17T08:14:49.545Z,1.80
2023-04-17T08:17:23.472Z,2.30
2023-04-17T08:22:31.301Z,1.70
2023-04-17T08:24:59.844Z,2.00
2023-04-17T08:27:29.345Z,1.80
2023-04-17T08:29:58.938Z,1.90
2023-04-17T08:32:27.496Z,1.40
2023-04-17T08:34:57.799Z,1.60
2023-04-17T08:37:30.204Z,1.80
2023-04-17T08:39:59.354Z,1.50
2023-04-17T08:42:28.586Z,1.70
2023-04-17T08:44:59.250Z,1.40
2023-04-17T08:47:31.602Z,1.90
2023-04-17T08:50:00.600Z,2.00
2023-04-17T08:52:29.411Z,2.40
2023-04-17T08:54:58.085Z,1.70
2023-04-17T08:57:27.925Z,2.20
2023-04-17T08:59:56.139Z,2.30
2023-04-17T09:02:27.490Z,2.20
2023-04-17T09:04:56.301Z,2.00
2023-04-17T09:07:29.097Z,1.70
2023-04-17T09:09:57.924Z,1.60
2023-04-17T09:12:27.300Z,1.40
2023-04-17T09:15:00.445Z,1.40
2023-04-17T09:17:33.466Z,1.40
2023-04-17T09:20:02.184Z,1.50
2023-04-17T09:22:31.860Z,1.50
2023-04-17T09:25:00.904Z,1.40
2023-04-17T09:27:33.067Z,1.30
2023-04-17T09:30:02.693Z,1.50
2023-04-17T09:32:32.877Z,1.40
2023-04-17T09:35:02.377Z,1.40
2023-04-17T09:37:50.290Z,1.50
2023-04-17T09:40:22.266Z,1.30
2023-04-17T09:43:04.433Z,1.30
2023-04-17T09:45:35.811Z,1.30
2023-04-17T09:48:11.910Z,1.60
2023-04-17T09:50:40.263Z,1.50
2023-04-17T09:53:10.060Z,1.30
2023-04-17T09:55:40.017Z,1.30
2023-04-17T09:58:08.452Z,1.40
2023-04-17T10:00:38.248Z,1.30
2023-04-17T10:03:06.918Z,1.30
2023-04-17T10:05:37.480Z,1.20
2023-04-17T10:08:06.016Z,1.00
2023-04-17T10:10:38.802Z,1.20
2023-04-17T10:13:07.477Z,1.30
2023-04-17T10:15:39.168Z,1.30
2023-04-17T10:18:21.081Z,1.80
2023-04-17T10:20:50.047Z,1.30
2023-04-17T10:23:29.504Z,1.50
2023-04-17T10:26:26.904Z,1.60
2023-04-17T10:28:55.759Z,2.20
2023-04-17T10:31:46.240Z,1.10
2023-04-17T10:34:34.636Z,1.30
2023-04-17T10:37:05.281Z,1.30
2023-04-17T10:40:06.411Z,1.50
2023-04-17T10:42:34.724Z,1.50
2023-04-17T10:45:05.785Z,1.10
2023-04-17T10:47:35.264Z,1.30
2023-04-17T10:50:05.445Z,1.30
2023-04-17T10:52:40.799Z,1.10
2023-04-17T10:55:09.742Z,1.30
2023-04-17T10:57:50.512Z,1.40
2023-04-17T11:00:19.208Z,1.40
2023-04-17T11:02:52.457Z,1.80
2023-04-17T11:05:22.990Z,1.30
2023-04-17T11:07:51.923Z,1.40
2023-04-17T11:10:21.082Z,1.00
2023-04-17T11:12:53.548Z,1.30
2023-04-17T11:15:31.109Z,1.40
2023-04-17T11:18:00.245Z,1.80
2023-04-17T11:20:30.116Z,1.20
2023-04-17T11:23:04.694Z,1.50
2023-04-17T11:25:34.370Z,1.30
2023-04-17T11:28:05.693Z,2.10
2023-04-17T11:30:40.717Z,2.00
2023-04-17T11:33:09.601Z,1.10
2023-04-17T11:35:40.156Z,1.20
2023-04-17T11:38:08.841Z,1.30
2023-04-17T11:40:46.046Z,1.20
2023-04-17T11:43:15.155Z,1.30
2023-04-17T11:48:03.293Z,0.90
2023-04-17T11:50:33.734Z,1.20
2023-04-17T11:53:03.689Z,0.90
2023-04-17T11:55:33.538Z,1.40
2023-04-17T11:58:04.890Z,1.10
2023-04-17T12:00:33.326Z,1.10
2023-04-17T12:03:02.685Z,1.10
2023-04-17T12:05:31.255Z,0.90
2023-04-17T12:08:05.138Z,0.90
2023-04-17T12:10:40.819Z,1.10
2023-04-17T12:13:09.631Z,1.30
2023-04-17T12:15:38.566Z,1.20
2023-04-17T12:18:08.790Z,1.10
2023-04-17T12:20:38.222Z,1.10
2023-04-17T12:23:06.429Z,1.30
2023-04-17T12:25:34.880Z,1.30
2023-04-17T12:28:05.132Z,1.00
2023-04-17T12:30:36.731Z,1.00
2023-04-17T12:33:08.565Z,1.10
2023-04-17T12:35:37.660Z,1.40
2023-04-17T12:38:06.379Z,1.30
2023-04-17T12:40:35.634Z,1.00
2023-04-17T12:43:06.380Z,1.50
2023-04-17T12:45:36.534Z,1.20
2023-04-17T12:48:06.290Z,1.30
2023-04-17T12:50:43.799Z,1.70
2023-04-17T12:53:13.662Z,1.30
2023-04-17T12:55:44.009Z,1.70
2023-04-17T12:58:12.899Z,1.20
2023-04-17T13:00:43.793Z,1.40
2023-04-17T13:03:12.740Z,1.00
2023-04-17T13:05:41.932Z,1.10
2023-04-17T13:08:15.653Z,1.10
2023-04-17T13:10:45.523Z,1.10
2023-04-17T13:13:13.840Z,1.30
2023-04-17T13:15:42.230Z,1.20
2023-04-17T13:18:10.571Z,1.00
2023-04-17T13:20:39.122Z,1.10
2023-04-17T13:23:07.448Z,1.20
2023-04-17T13:25:35.796Z,1.40
2023-04-17T13:28:04.380Z,1.00
2023-04-17T13:30:32.681Z,1.30
2023-04-17T13:33:02.324Z,1.30
2023-04-17T13:35:33.755Z,1.60
2023-04-17T13:38:04.654Z,1.40
2023-04-17T13:40:33.951Z,1.20
2023-04-17T13:43:02.972Z,1.30
2023-04-17T13:45:31.343Z,1.20
2023-04-17T13:48:00.828Z,1.30
2023-04-17T13:50:29.707Z,1.10
2023-04-17T13:52:58.009Z,1.10
2023-04-17T13:55:27.019Z,1.10
2023-04-17T13:57:55.281Z,1.10
2023-04-17T14:00:23.585Z,1.20
2023-04-17T14:02:51.954Z,1.20
2023-04-17T14:05:20.335Z,1.00
2023-04-17T14:07:50.708Z,1.00
2023-04-17T14:10:19.054Z,2.40
2023-04-17T14:12:50.450Z,1.50
2023-04-17T14:15:18.664Z,1.40
2023-04-17T14:17:47.211Z,1.70
2023-04-17T14:20:17.787Z,1.30
2023-04-17T14:22:47.449Z,1.50
2023-04-17T14:25:16.282Z,1.40
2023-04-17T14:27:44.643Z,1.20
2023-04-17T14:30:13.120Z,1.40
2023-04-17T14:32:41.532Z,1.60
2023-04-17T14:35:10.224Z,1.50
2023-04-17T14:37:39.015Z,1.30
2023-04-17T14:40:07.555Z,1.30
2023-04-17T14:42:51.231Z,1.30
2023-04-17T14:45:22.956Z,1.30
2023-04-17T14:47:51.211Z,1.50
2023-04-17T14:50:19.533Z,1.90
2023-04-17T14:52:47.902Z,1.20
2023-04-17T14:55:16.392Z,1.20
2023-04-17T14:57:46.195Z,1.60
2023-04-17T15:00:14.797Z,1.50
2023-04-17T15:02:44.591Z,1.60
2023-04-17T15:05:12.790Z,1.40
2023-04-17T15:07:41.410Z,1.60
2023-04-17T15:10:10.028Z,1.70
2023-04-17T15:12:38.474Z,1.40
2023-04-17T15:15:08.039Z,1.30
2023-04-17T15:17:37.983Z,1.90
2023-04-17T15:20:07.248Z,1.50
2023-04-17T15:22:35.873Z,1.60
2023-04-17T15:25:04.375Z,1.40
2023-04-17T15:27:32.716Z,1.40
2023-04-17T15:30:01.513Z,1.40
2023-04-17T15:32:30.447Z,1.30
2023-04-17T15:34:58.732Z,1.50
2023-04-17T15:37:28.635Z,1.50
2023-04-17T15:40:01.084Z,1.70
2023-04-17T15:42:30.501Z,1.70
2023-04-17T15:44:59.256Z,1.30
2023-04-17T15:47:27.484Z,1.40
2023-04-17T15:49:55.846Z,1.80
2023-04-17T15:52:24.464Z,1.60
2023-04-17T15:54:53.373Z,1.60
2023-04-17T15:57:21.585Z,2.00
2023-04-17T15:59:49.712Z,1.40
2023-04-17T16:02:18.647Z,1.30
2023-04-17T16:04:47.061Z,1.50
2023-04-17T16:07:16.716Z,1.70
2023-04-17T16:09:46.942Z,1.80
2023-04-17T16:12:16.376Z,1.50
2023-04-17T16:14:44.532Z,1.60
2023-04-17T16:17:12.697Z,1.60
2023-04-17T16:19:41.039Z,1.50
2023-04-17T16:22:09.609Z,1.20
2023-04-17T16:24:37.941Z,1.50
2023-04-17T16:27:06.940Z,1.40
2023-04-17T16:29:35.822Z,1.70
2023-04-17T16:32:04.194Z,1.20
2023-04-17T16:34:32.477Z,1.40
2023-04-17T16:37:00.845Z,1.40
2023-04-17T16:39:30.077Z,1.70
2023-04-17T16:41:58.315Z,1.30
2023-04-17T16:44:26.624Z,1.30
2023-04-17T16:49:27.054Z,1.20
2023-04-17T16:51:55.929Z,1.50
2023-04-17T16:54:24.311Z,1.30
2023-04-17T16:56:52.414Z,1.30
2023-04-17T16:59:20.768Z,1.50
2023-04-17T17:01:49.884Z,1.20
2023-04-17T17:04:18.192Z,1.50
2023-04-17T17:06:46.447Z,1.50
2023-04-17T17:09:14.657Z,1.90
2023-04-17T17:11:43.590Z,1.60
2023-04-17T17:14:15.727Z,1.40
2023-04-17T17:16:44.487Z,1.40
2023-04-17T17:19:15.303Z,1.70
2023-04-17T17:21:43.442Z,1.70
2023-04-17T17:24:11.808Z,1.80
2023-04-17T17:26:40.002Z,1.50
2023-04-17T17:29:08.174Z,1.70
2023-04-17T17:31:36.385Z,1.60
2023-04-17T17:34:22.402Z,1.60
2023-04-17T17:36:53.345Z,1.80
2023-04-17T17:39:22.488Z,2.30
2023-04-17T17:41:51.108Z,2.00
2023-04-17T17:44:19.212Z,1.60
2023-04-17T17:46:47.615Z,1.80
2023-04-17T17:49:16.038Z,2.00
2023-04-17T17:51:44.797Z,1.40
2023-04-17T17:54:13.355Z,1.60
2023-04-17T17:56:41.816Z,1.50
2023-04-17T17:59:10.045Z,1.40
2023-04-17T18:01:38.425Z,1.70
2023-04-17T18:04:07.406Z,2.00
2023-04-17T18:06:36.700Z,2.70
2023-04-17T18:09:05.054Z,2.70
2023-04-17T18:11:33.349Z,2.60
2023-04-17T18:14:01.660Z,2.50
2023-04-17T18:16:34.653Z,3.10
2023-04-17T18:19:03.643Z,2.50
2023-04-17T18:21:33.004Z,1.90
2023-04-17T18:24:04.055Z,2.00
2023-04-17T18:26:33.693Z,2.10
2023-04-17T18:29:02.010Z,2.70
2023-04-17T18:31:30.389Z,2.60
2023-04-17T18:34:02.569Z,2.50
2023-04-17T18:36:31.236Z,1.90
2023-04-17T18:38:59.603Z,2.60
2023-04-17T18:41:27.984Z,2.60
2023-04-17T18:43:56.777Z,2.20
2023-04-17T18:46:27.242Z,2.10
2023-04-17T18:48:56.203Z,2.50
2023-04-17T18:51:26.203Z,2.70
2023-04-17T18:53:55.038Z,2.70
2023-04-17T18:56:24.568Z,2.30
2023-04-17T18:58:53.684Z,2.50
2023-04-17T19:01:22.038Z,2.10
2023-04-17T19:03:51.389Z,2.10
2023-04-17T19:06:19.488Z,2.20
2023-04-17T19:08:48.625Z,2.10
2023-04-17T19:11:17.808Z,1.80
2023-04-17T19:13:47.829Z,2.40
2023-04-17T19:16:16.015Z,2.30
2023-04-17T19:18:44.196Z,1.90
2023-04-17T19:21:12.394Z,1.70
2023-04-17T19:23:40.849Z,2.30
2023-04-17T19:26:10.043Z,2.30
2023-04-17T19:28:38.321Z,1.90
2023-04-17T19:31:06.450Z,3.10
2023-04-17T19:33:34.992Z,2.00
2023-04-17T19:36:03.370Z,2.40
2023-04-17T19:38:31.750Z,2.10
2023-04-17T19:41:29.423Z,2.40
2023-04-17T19:43:57.703Z,1.80
2023-04-17T19:46:27.549Z,1.70
2023-04-17T19:48:56.367Z,2.00
2023-04-17T19:51:24.509Z,1.80
2023-04-17T19:53:53.652Z,2.00
2023-04-17T19:56:22.397Z,1.70
2023-04-17T19:58:50.777Z,1.80
2023-04-17T20:01:18.940Z,1.80
2023-04-17T20:03:47.355Z,1.90
2023-04-17T20:06:15.864Z,2.20
2023-04-17T20:08:44.078Z,2.00
2023-04-17T20:11:12.491Z,2.00
2023-04-17T20:13:41.472Z,2.10
2023-04-17T20:16:09.670Z,1.90
2023-04-17T20:18:38.150Z,2.00
2023-04-17T20:21:07.209Z,2.00
2023-04-17T20:23:35.439Z,2.30
2023-04-17T20:26:04.147Z,2.80
2023-04-17T20:28:32.933Z,1.80
2023-04-17T20:31:01.345Z,1.90
2023-04-17T20:33:29.808Z,1.80
2023-04-17T20:35:58.311Z,2.00
2023-04-17T20:38:26.531Z,2.20
2023-04-17T20:40:55.098Z,1.90
2023-04-17T20:43:23.285Z,1.90
2023-04-17T20:45:51.744Z,2.10
2023-04-17T20:48:20.026Z,2.00
2023-04-17T20:50:48.210Z,1.70
2023-04-17T20:53:16.575Z,2.30
2023-04-17T20:55:47.204Z,2.20
2023-04-17T20:58:16.505Z,1.70
2023-04-17T21:00:58.245Z,1.80
2023-04-17T21:03:30.729Z,2.00
2023-04-17T21:05:59.338Z,1.70
2023-04-17T21:08:27.621Z,1.90
2023-04-17T21:10:55.832Z,2.00
2023-04-17T21:13:24.899Z,1.80
2023-04-17T21:15:53.609Z,2.10
2023-04-17T21:18:22.016Z,1.60
2023-04-17T21:20:50.137Z,2.10
2023-04-17T21:23:18.323Z,1.80
2023-04-17T21:25:47.085Z,1.70
2023-04-17T21:28:15.323Z,1.50
2023-04-17T21:30:43.807Z,1.90
2023-04-17T21:33:12.001Z,2.30
2023-04-17T21:35:40.354Z,2.00
2023-04-17T21:38:08.602Z,2.10
2023-04-17T21:40:37.350Z,2.00
2023-04-17T21:43:06.145Z,2.20
2023-04-17T21:45:34.963Z,1.90
2023-04-17T21:48:03.564Z,1.80
2023-04-17T21:50:31.910Z,1.60
2023-04-17T21:53:00.261Z,1.70
2023-04-17T21:55:28.715Z,2.30
2023-04-17T21:57:56.961Z,2.30
2023-04-17T22:00:25.193Z,1.90
2023-04-17T22:02:54.173Z,2.10
2023-04-17T22:05:22.351Z,1.90
2023-04-17T22:07:54.776Z,1.90
2023-04-17T22:10:24.347Z,2.00
2023-04-17T22:12:52.537Z,2.10
2023-04-17T22:15:22.271Z,2.10
2023-04-17T22:17:51.820Z,2.00
2023-04-17T22:20:20.754Z,2.00
2023-04-17T22:22:49.587Z,1.80
2023-04-17T22:25:17.848Z,1.90
2023-04-17T22:27:46.883Z,2.10
2023-04-17T22:30:15.308Z,2.10
2023-04-17T22:32:43.830Z,2.30
2023-04-17T22:35:12.175Z,1.80
2023-04-17T22:37:40.522Z,1.60
2023-04-17T22:40:09.452Z,1.90
2023-04-17T22:42:38.240Z,2.00
2023-04-17T22:45:06.691Z,1.70
2023-04-17T22:47:35.323Z,1.80
2023-04-17T22:50:04.346Z,1.60
2023-04-17T22:52:32.831Z,2.30
2023-04-17T22:55:01.803Z,1.90
2023-04-17T22:57:30.202Z,1.50
2023-04-17T22:59:58.402Z,1.80
2023-04-17T23:02:27.104Z,1.90
2023-04-17T23:04:56.429Z,1.90
2023-04-17T23:07:24.711Z,1.80
2023-04-17T23:09:53.309Z,2.00
2023-04-17T23:12:21.969Z,2.00
2023-04-17T23:14:50.694Z,2.30
2023-04-17T23:17:19.128Z,2.20
2023-04-17T23:19:48.171Z,2.60
2023-04-17T23:22:16.323Z,4.30
2023-04-17T23:24:45.017Z,6.20
2023-04-17T23:27:13.123Z,6.00
2023-04-17T23:29:41.903Z,6.70
2023-04-17T23:32:10.352Z,7.40
2023-04-17T23:34:39.243Z,8.60
2023-04-17T23:37:07.698Z,8.90
2023-04-17T23:39:35.873Z,9.70
2023-04-17T23:42:07.354Z,9.80
2023-04-17T23:44:35.832Z,10.80
2023-04-17T23:47:04.135Z,9.80
2023-04-17T23:49:33.139Z,11.80
2023-04-17T23:52:01.444Z,12.30
2023-04-17T23:54:30.393Z,11.40
2023-04-17T23:56:58.543Z,10.50
2023-04-17T23:59:27.294Z,10.80
